Time;durP1;ratioP1;P1;durP2;ratioP2;P2;SDS_P1;SDS_P2;PMS_P1;PMS_P2;Temp;Humidity;BMP_temperature;BMP_pressure;BME280_temperature;BME280_humidity;BME280_pressure;Samples;Min_cycle;Max_cycle;Signal;HPM_P1;HPM_P2
2023/10/26 00:01:26;;;;;;;1.13;0.60;;;11.10;99.90;;;;;;4996769;28;20042;-63
2023/10/26 00:03:52;;;;;;;0.43;0.43;;;11.10;99.90;;;;;;4996294;28;20069;-63
2023/10/26 00:06:18;;;;;;;0.77;0.50;;;11.00;99.90;;;;;;4995074;28;20049;-64
2023/10/26 00:08:43;;;;;;;0.60;0.60;;;11.00;99.90;;;;;;4993885;28;20034;-63
2023/10/26 00:11:09;;;;;;;0.50;0.50;;;11.00;99.90;;;;;;4997494;28;20145;-63
2023/10/26 00:13:34;;;;;;;1.17;0.60;;;11.00;99.90;;;;;;4997953;28;20026;-61
2023/10/26 00:16:00;;;;;;;0.50;0.50;;;11.00;99.90;;;;;;4995828;28;20541;-63
2023/10/26 00:18:26;;;;;;;0.68;0.50;;;11.00;99.90;;;;;;4997246;28;20026;-64
2023/10/26 00:20:58;;;;;;;0.60;0.60;;;11.00;99.90;;;;;;4998741;28;20061;-63
2023/10/26 00:23:24;;;;;;;0.50;0.50;;;10.90;99.90;;;;;;4999169;28;20116;-63
2023/10/26 00:25:50;;;;;;;0.60;0.60;;;10.90;99.90;;;;;;4997372;28;20109;-63
2023/10/26 00:28:15;;;;;;;0.50;0.50;;;10.90;99.90;;;;;;4995522;28;20026;-63
2023/10/26 00:30:41;;;;;;;0.93;0.60;;;10.90;99.90;;;;;;4997317;28;20073;-64
2023/10/26 00:33:07;;;;;;;0.57;0.50;;;10.90;99.90;;;;;;4995681;28;20076;-64
2023/10/26 00:35:32;;;;;;;1.45;1.25;;;10.90;99.90;;;;;;4999926;28;20562;-63
2023/10/26 00:37:58;;;;;;;2.08;0.60;;;11.00;99.90;;;;;;4998093;28;20145;-62
2023/10/26 00:40:23;;;;;;;0.82;0.60;;;11.00;99.90;;;;;;4996099;28;20019;-62
2023/10/26 00:42:49;;;;;;;1.33;0.65;;;11.00;99.90;;;;;;4996921;28;20050;-63
2023/10/26 00:45:15;;;;;;;1.23;0.80;;;11.10;99.90;;;;;;4996647;28;20017;-62
2023/10/26 00:47:41;;;;;;;4.25;0.88;;;11.10;99.90;;;;;;4997096;28;20034;-63
2023/10/26 00:50:07;;;;;;;0.75;0.60;;;11.10;99.90;;;;;;4995648;28;20167;-63
2023/10/26 00:52:35;;;;;;;2.15;0.70;;;11.10;99.90;;;;;;4996447;28;20561;-62
2023/10/26 00:55:03;;;;;;;0.70;0.70;;;11.10;99.90;;;;;;4996385;28;20058;-64
2023/10/26 00:57:29;;;;;;;4.88;0.80;;;11.10;99.90;;;;;;4995484;28;20038;-64
2023/10/26 00:59:55;;;;;;;0.80;0.80;;;11.10;99.90;;;;;;4995934;28;20044;-63
2023/10/26 01:02:23;;;;;;;2.67;0.95;;;11.10;99.90;;;;;;4997711;28;20073;-63
2023/10/26 01:04:49;;;;;;;1.25;1.17;;;11.10;99.90;;;;;;4996096;28;20050;-64
2023/10/26 01:07:15;;;;;;;1.13;0.90;;;11.10;99.90;;;;;;4999974;28;20108;-64
2023/10/26 01:09:41;;;;;;;1.25;0.80;;;11.00;99.90;;;;;;4997716;28;20042;-63
2023/10/26 01:12:06;;;;;;;0.70;0.70;;;11.00;99.90;;;;;;4997817;28;20113;-64
2023/10/26 01:14:32;;;;;;;0.77;0.77;;;11.00;99.90;;;;;;4997275;28;20025;-64
2023/10/26 01:16:58;;;;;;;0.68;0.68;;;11.00;99.90;;;;;;4996433;28;20038;-64
2023/10/26 01:19:37;;;;;;;0.65;0.50;;;11.00;99.90;;;;;;4998445;28;20014;-64
2023/10/26 01:22:03;;;;;;;0.55;0.55;;;11.00;99.90;;;;;;4998066;28;20022;-64
2023/10/26 01:24:28;;;;;;;0.40;0.40;;;11.00;99.90;;;;;;4995142;28;20072;-63
2023/10/26 01:26:54;;;;;;;2.42;1.08;;;11.00;99.90;;;;;;4996640;28;20067;-64
2023/10/26 01:29:19;;;;;;;0.40;0.40;;;10.90;99.90;;;;;;4994333;28;20125;-62
2023/10/26 01:31:45;;;;;;;0.50;0.50;;;10.90;99.90;;;;;;4994134;28;20054;-63
2023/10/26 01:34:11;;;;;;;1.20;0.47;;;10.90;99.90;;;;;;4994300;28;20062;-63
2023/10/26 01:36:37;;;;;;;3.60;0.68;;;10.80;99.90;;;;;;4995737;28;20422;-63
2023/10/26 01:39:02;;;;;;;1.50;0.50;;;10.80;99.90;;;;;;4996649;28;20109;-63
2023/10/26 01:41:34;;;;;;;0.40;0.40;;;10.70;99.90;;;;;;4993879;28;20026;-63
2023/10/26 01:44:03;;;;;;;0.50;0.50;;;10.70;99.90;;;;;;4996793;28;20050;-63
2023/10/26 01:46:28;;;;;;;0.68;0.52;;;10.70;99.90;;;;;;4997227;28;20042;-63
2023/10/26 01:48:54;;;;;;;0.50;0.50;;;10.60;99.90;;;;;;4991991;28;20034;-64
2023/10/26 01:51:20;;;;;;;1.48;0.50;;;10.60;99.90;;;;;;4994485;28;20015;-63
2023/10/26 01:53:46;;;;;;;0.55;0.55;;;10.60;99.90;;;;;;4996956;28;20038;-62
2023/10/26 01:56:11;;;;;;;0.60;0.50;;;10.60;99.90;;;;;;4996175;28;20046;-63
2023/10/26 01:58:37;;;;;;;0.82;0.55;;;10.50;99.90;;;;;;4997674;28;20034;-62
2023/10/26 02:01:03;;;;;;;0.82;0.60;;;10.50;99.90;;;;;;5001709;28;20035;-62
2023/10/26 02:03:28;;;;;;;0.60;0.60;;;10.50;99.90;;;;;;5000292;28;20116;-60
2023/10/26 02:05:54;;;;;;;1.15;0.85;;;10.50;99.90;;;;;;5000362;28;20665;-62
2023/10/26 02:08:19;;;;;;;0.60;0.60;;;10.50;99.90;;;;;;4996245;28;21006;-62
2023/10/26 02:10:45;;;;;;;0.70;0.68;;;10.50;99.90;;;;;;4999755;28;20050;-63
2023/10/26 02:13:11;;;;;;;0.68;0.68;;;10.50;99.90;;;;;;4999014;28;20046;-62
2023/10/26 02:15:37;;;;;;;0.63;0.63;;;10.50;99.90;;;;;;4997512;28;20038;-61
2023/10/26 02:18:02;;;;;;;1.38;0.93;;;10.40;99.90;;;;;;5000840;28;20032;-62
2023/10/26 02:20:28;;;;;;;0.70;0.70;;;10.40;99.90;;;;;;5000031;28;20034;-62
2023/10/26 02:22:54;;;;;;;0.60;0.60;;;10.40;99.90;;;;;;4999955;28;20034;-62
2023/10/26 02:25:22;;;;;;;0.70;0.65;;;10.40;99.90;;;;;;4999430;28;20032;-63
2023/10/26 02:27:48;;;;;;;0.90;0.60;;;10.40;99.90;;;;;;5000149;28;20027;-62
2023/10/26 02:30:14;;;;;;;0.57;0.50;;;10.40;99.90;;;;;;4999855;28;20109;-62
2023/10/26 02:32:40;;;;;;;0.88;0.65;;;10.30;99.90;;;;;;5001701;28;20398;-62
2023/10/26 02:35:06;;;;;;;0.57;0.57;;;10.30;99.90;;;;;;4999311;28;20030;-62
2023/10/26 02:37:37;;;;;;;1.40;0.55;;;10.40;99.90;;;;;;4998514;28;20046;-62
2023/10/26 02:40:08;;;;;;;1.02;0.70;;;10.30;99.90;;;;;;4998323;28;20034;-62
2023/10/26 02:42:35;;;;;;;0.95;0.70;;;10.30;99.90;;;;;;5001788;28;20065;-62
2023/10/26 02:45:03;;;;;;;3.50;1.20;;;10.30;99.90;;;;;;5002779;28;20104;-62
2023/10/26 02:47:29;;;;;;;1.35;0.70;;;10.30;99.90;;;;;;4999600;28;20129;-62
2023/10/26 02:49:55;;;;;;;0.85;0.70;;;10.30;99.90;;;;;;4996209;28;20120;-61
2023/10/26 02:52:20;;;;;;;1.83;0.60;;;10.20;99.90;;;;;;4996901;28;20061;-61
2023/10/26 02:54:46;;;;;;;0.60;0.60;;;10.20;99.90;;;;;;4999234;28;20038;-61
2023/10/26 02:57:14;;;;;;;0.80;0.65;;;10.20;99.90;;;;;;5002146;28;20027;-61
2023/10/26 02:59:40;;;;;;;0.80;0.50;;;10.20;99.90;;;;;;4998493;28;20537;-62
2023/10/26 03:02:06;;;;;;;0.75;0.50;;;10.20;99.90;;;;;;4998884;28;20049;-62
2023/10/26 03:04:32;;;;;;;0.55;0.50;;;10.20;99.90;;;;;;4998445;28;20038;-62
2023/10/26 03:06:58;;;;;;;0.52;0.50;;;10.10;99.90;;;;;;5001651;28;20512;-62
2023/10/26 03:09:23;;;;;;;0.40;0.40;;;10.10;99.90;;;;;;5001322;28;20042;-62
2023/10/26 03:11:49;;;;;;;0.63;0.50;;;10.10;99.90;;;;;;5000642;28;20026;-62
2023/10/26 03:14:15;;;;;;;0.75;0.60;;;10.00;99.90;;;;;;4997267;28;20450;-61
2023/10/26 03:16:41;;;;;;;0.60;0.60;;;10.10;99.90;;;;;;4998384;28;20441;-62
2023/10/26 03:19:06;;;;;;;1.45;0.60;;;10.00;99.90;;;;;;4997602;28;20034;-62
2023/10/26 03:21:32;;;;;;;0.52;0.50;;;10.00;99.90;;;;;;4999745;28;20080;-62
2023/10/26 03:23:57;;;;;;;1.70;0.60;;;10.10;99.90;;;;;;4996785;28;20460;-62
2023/10/26 03:26:23;;;;;;;0.70;0.60;;;10.00;99.90;;;;;;4998235;28;20033;-61
2023/10/26 03:28:50;;;;;;;0.70;0.70;;;10.00;99.90;;;;;;4999503;28;20486;-60
2023/10/26 03:31:16;;;;;;;0.70;0.60;;;9.90;99.90;;;;;;4995923;28;20030;-61
2023/10/26 03:33:42;;;;;;;0.85;0.80;;;9.90;99.90;;;;;;4996770;28;20042;-62
2023/10/26 03:36:15;;;;;;;1.13;0.65;;;10.00;99.90;;;;;;5000051;28;20433;-61
2023/10/26 03:38:42;;;;;;;2.28;0.80;;;10.00;99.90;;;;;;4997578;28;20028;-62
2023/10/26 03:41:08;;;;;;;0.90;0.80;;;10.00;99.90;;;;;;4999126;28;20029;-62
2023/10/26 03:43:33;;;;;;;0.73;0.73;;;10.10;99.90;;;;;;4999021;28;20037;-62
2023/10/26 03:45:59;;;;;;;0.88;0.80;;;10.10;99.90;;;;;;4997868;28;20494;-62
2023/10/26 03:48:24;;;;;;;0.95;0.70;;;10.10;99.90;;;;;;4998880;28;20038;-61
2023/10/26 03:50:50;;;;;;;1.05;0.95;;;10.10;99.90;;;;;;4998014;28;20538;-62
2023/10/26 03:53:16;;;;;;;1.48;1.13;;;10.10;99.90;;;;;;5000568;28;20146;-62
2023/10/26 03:55:41;;;;;;;2.17;0.80;;;10.10;99.90;;;;;;4998671;28;20037;-62
2023/10/26 03:58:07;;;;;;;2.00;0.90;;;10.10;99.90;;;;;;4999050;28;20449;-62
2023/10/26 04:00:32;;;;;;;0.75;0.75;;;10.10;99.90;;;;;;4998410;28;20127;-61
2023/10/26 04:02:58;;;;;;;1.70;0.70;;;10.00;99.90;;;;;;4997514;28;20033;-61
2023/10/26 04:05:24;;;;;;;0.90;0.90;;;10.00;99.90;;;;;;4997722;28;20026;-62
2023/10/26 04:07:50;;;;;;;0.80;0.65;;;10.00;99.90;;;;;;4999180;28;20537;-62
2023/10/26 04:10:17;;;;;;;0.82;0.70;;;10.00;99.90;;;;;;4997358;28;20059;-62
2023/10/26 04:12:43;;;;;;;1.00;0.90;;;10.00;99.90;;;;;;4995494;28;20125;-62
2023/10/26 04:15:09;;;;;;;4.13;0.98;;;10.00;99.90;;;;;;4996212;28;20109;-61
2023/10/26 04:17:34;;;;;;;1.00;0.90;;;10.00;99.90;;;;;;4996506;28;20040;-61
2023/10/26 04:20:00;;;;;;;2.15;0.80;;;10.00;99.90;;;;;;4996132;28;20737;-62
2023/10/26 04:22:26;;;;;;;1.45;1.13;;;10.00;99.90;;;;;;4997650;28;20041;-63
2023/10/26 04:24:52;;;;;;;1.10;1.00;;;10.00;99.90;;;;;;4995342;28;20053;-62
2023/10/26 04:27:18;;;;;;;0.88;0.80;;;10.00;99.90;;;;;;5002898;28;20610;-62
2023/10/26 04:29:44;;;;;;;1.00;0.90;;;10.00;99.90;;;;;;4998539;28;20034;-62
2023/10/26 04:32:10;;;;;;;1.00;0.90;;;10.00;99.90;;;;;;4998540;28;20038;-62
2023/10/26 04:34:36;;;;;;;1.17;0.90;;;10.00;99.90;;;;;;4996690;28;20452;-61
2023/10/26 04:37:03;;;;;;;1.42;1.30;;;10.00;99.90;;;;;;4995639;28;20117;-61
2023/10/26 04:39:29;;;;;;;2.20;0.93;;;10.00;99.90;;;;;;4995139;28;20039;-61
2023/10/26 04:41:54;;;;;;;1.00;0.90;;;9.90;99.90;;;;;;4995774;28;20523;-62
2023/10/26 04:44:20;;;;;;;1.25;1.10;;;9.90;99.90;;;;;;4995979;28;20109;-62
2023/10/26 04:46:46;;;;;;;8.82;6.85;;;9.90;99.90;;;;;;4999462;28;20517;-62
2023/10/26 04:49:11;;;;;;;7.65;7.13;;;10.00;99.90;;;;;;4997677;28;20064;-61
2023/10/26 04:51:37;;;;;;;3.75;2.92;;;9.90;99.90;;;;;;4997036;28;20041;-62
2023/10/26 04:54:02;;;;;;;1.10;1.00;;;9.90;99.90;;;;;;4999828;28;20034;-61
2023/10/26 04:56:28;;;;;;;1.35;1.25;;;9.90;99.90;;;;;;4992594;28;20034;-62
2023/10/26 04:58:54;;;;;;;2.65;1.02;;;9.90;99.90;;;;;;4994336;28;20385;-62
2023/10/26 05:01:20;;;;;;;1.65;1.00;;;9.90;99.90;;;;;;4995662;28;20039;-62
2023/10/26 05:03:45;;;;;;;1.52;1.02;;;9.90;99.90;;;;;;4992281;28;20037;-61
2023/10/26 05:06:11;;;;;;;1.05;1.05;;;9.80;99.90;;;;;;4997540;28;20528;-62
2023/10/26 05:08:36;;;;;;;1.88;1.05;;;9.80;99.90;;;;;;4996203;28;20042;-62
2023/10/26 05:11:02;;;;;;;1.13;1.02;;;9.70;99.90;;;;;;4993675;28;20057;-61
2023/10/26 05:13:29;;;;;;;1.40;0.90;;;9.70;99.90;;;;;;5000279;28;20551;-62
2023/10/26 05:15:54;;;;;;;1.20;1.10;;;9.70;99.90;;;;;;4995308;28;20872;-61
2023/10/26 05:18:20;;;;;;;1.25;1.00;;;9.60;99.90;;;;;;4995752;28;20030;-61
2023/10/26 05:20:49;;;;;;;1.20;1.00;;;9.50;99.90;;;;;;4997560;28;20028;-62
2023/10/26 05:23:15;;;;;;;1.08;0.98;;;9.50;99.90;;;;;;4998431;28;20084;-61
2023/10/26 05:25:40;;;;;;;3.90;1.50;;;9.40;99.90;;;;;;4997799;28;20497;-61
2023/10/26 05:28:06;;;;;;;1.05;0.95;;;9.40;99.90;;;;;;4996547;28;20050;-61
2023/10/26 05:30:32;;;;;;;2.30;1.17;;;9.30;99.90;;;;;;4992167;28;20109;-62
2023/10/26 05:32:57;;;;;;;4.20;1.40;;;9.30;99.90;;;;;;4998179;28;20034;-61
2023/10/26 05:35:23;;;;;;;1.40;1.30;;;9.30;99.90;;;;;;5000131;28;20033;-61
2023/10/26 05:37:49;;;;;;;2.97;1.35;;;9.20;99.90;;;;;;5000661;28;20596;-62
2023/10/26 05:40:14;;;;;;;1.30;1.20;;;9.20;99.90;;;;;;5003695;28;20121;-61
2023/10/26 05:42:40;;;;;;;2.03;1.33;;;9.20;99.90;;;;;;5001834;28;20035;-61
2023/10/26 05:45:06;;;;;;;1.75;1.40;;;9.30;99.90;;;;;;4995648;28;20137;-61
2023/10/26 05:47:32;;;;;;;5.28;1.20;;;9.30;99.90;;;;;;5001366;28;20036;-62
2023/10/26 05:49:57;;;;;;;3.83;1.10;;;9.30;99.90;;;;;;5000015;28;20049;-61
2023/10/26 05:52:23;;;;;;;3.70;1.30;;;9.30;99.90;;;;;;4997630;28;20465;-62
2023/10/26 05:54:55;;;;;;;1.25;1.15;;;9.30;99.90;;;;;;5000616;28;20035;-62
2023/10/26 05:57:20;;;;;;;;;;;9.40;99.90;;;;;;5000904;28;20046;-61
2023/10/26 05:59:46;;;;;;;1.20;1.10;;;9.40;99.90;;;;;;5002414;28;19944;-62
2023/10/26 06:02:12;;;;;;;1.80;1.52;;;9.40;99.90;;;;;;4997408;28;20046;-61
2023/10/26 06:04:38;;;;;;;2.15;1.95;;;9.50;99.90;;;;;;4999658;28;20623;-62
2023/10/26 06:07:04;;;;;;;1.55;1.45;;;9.50;99.90;;;;;;5000174;28;20044;-61
2023/10/26 06:09:29;;;;;;;1.63;1.52;;;9.50;99.90;;;;;;5000092;28;20429;-63
2023/10/26 06:11:55;;;;;;;1.40;1.30;;;9.60;99.90;;;;;;5003084;28;20034;-61
2023/10/26 06:14:21;;;;;;;6.30;1.60;;;9.60;99.90;;;;;;4997642;28;20058;-62
2023/10/26 06:16:46;;;;;;;1.55;1.30;;;9.60;99.90;;;;;;5001553;28;20506;-61
2023/10/26 06:19:12;;;;;;;2.25;1.20;;;9.60;99.90;;;;;;4997939;28;20036;-62
2023/10/26 06:21:38;;;;;;;4.90;1.48;;;9.60;99.90;;;;;;4998204;28;20054;-61
2023/10/26 06:24:05;;;;;;;1.50;1.40;;;9.60;99.90;;;;;;5001397;28;20660;-62
2023/10/26 06:26:31;;;;;;;2.22;1.30;;;9.60;99.90;;;;;;5003076;28;20057;-62
2023/10/26 06:28:56;;;;;;;2.15;1.17;;;9.50;99.90;;;;;;5000400;28;20215;-62
2023/10/26 06:31:22;;;;;;;1.48;1.20;;;9.60;99.90;;;;;;5003023;28;20118;-62
2023/10/26 06:33:48;;;;;;;1.77;1.48;;;9.60;99.90;;;;;;5002261;28;20026;-61
2023/10/26 06:36:14;;;;;;;1.88;1.50;;;9.60;99.90;;;;;;5000895;28;20542;-61
2023/10/26 06:38:40;;;;;;;2.10;1.52;;;9.60;99.90;;;;;;4998979;28;20037;-61
2023/10/26 06:41:07;;;;;;;2.60;1.65;;;9.70;99.90;;;;;;5001266;28;20381;-61
2023/10/26 06:43:32;;;;;;;1.70;1.50;;;9.70;99.90;;;;;;5001414;28;20038;-62
2023/10/26 06:46:01;;;;;;;1.70;1.60;;;9.70;99.90;;;;;;5001780;28;20068;-61
2023/10/26 06:48:27;;;;;;;1.95;1.70;;;9.80;99.90;;;;;;5000579;28;20042;-61
2023/10/26 06:50:58;;;;;;;1.98;1.77;;;9.80;99.90;;;;;;5005165;28;20075;-61
2023/10/26 06:53:24;;;;;;;2.17;1.98;;;9.80;99.90;;;;;;5000120;28;20037;-61
2023/10/26 06:55:51;;;;;;;2.42;1.90;;;9.90;99.90;;;;;;5001512;28;20033;-62
2023/10/26 06:58:16;;;;;;;2.58;1.70;;;9.90;99.90;;;;;;5000071;28;20059;-61
2023/10/26 07:00:42;;;;;;;2.20;2.00;;;9.90;99.90;;;;;;4998840;28;20525;-61
2023/10/26 07:03:07;;;;;;;2.25;2.05;;;9.90;99.90;;;;;;4998554;28;20038;-61
2023/10/26 07:05:34;;;;;;;2.35;2.13;;;10.00;99.90;;;;;;4998459;28;20022;-62
2023/10/26 07:07:59;;;;;;;2.90;2.13;;;10.00;99.90;;;;;;4995584;28;20034;-61
2023/10/26 07:10:28;;;;;;;3.65;2.10;;;10.10;99.90;;;;;;4999021;28;20528;-62
2023/10/26 07:12:53;;;;;;;1.92;1.83;;;10.10;99.90;;;;;;5000308;28;20026;-62
2023/10/26 07:15:19;;;;;;;2.05;1.88;;;10.10;99.90;;;;;;5000018;28;20034;-62
2023/10/26 07:17:45;;;;;;;2.40;2.00;;;10.10;99.90;;;;;;5001725;28;20079;-62
2023/10/26 07:20:14;;;;;;;2.38;2.13;;;10.20;99.90;;;;;;5001222;28;20392;-61
2023/10/26 07:22:40;;;;;;;2.47;2.03;;;10.20;99.90;;;;;;4999547;28;20030;-62
2023/10/26 07:25:06;;;;;;;2.60;2.00;;;10.30;99.90;;;;;;4998875;28;20030;-62
2023/10/26 07:27:32;;;;;;;2.30;2.10;;;10.30;99.90;;;;;;5001184;28;20049;-62
2023/10/26 07:30:01;;;;;;;2.20;2.00;;;10.30;99.90;;;;;;4998446;28;20038;-61
2023/10/26 07:32:27;;;;;;;3.50;2.33;;;10.30;99.90;;;;;;4994178;28;20655;-62
2023/10/26 07:34:54;;;;;;;2.67;2.17;;;10.30;99.90;;;;;;4998303;28;20065;-62
2023/10/26 07:37:19;;;;;;;4.57;2.38;;;10.30;99.90;;;;;;4998595;28;20432;-61
2023/10/26 07:39:45;;;;;;;2.08;1.90;;;10.30;99.90;;;;;;4996695;28;20034;-60
2023/10/26 07:42:11;;;;;;;2.30;1.83;;;10.30;99.90;;;;;;4999250;28;20562;-62
2023/10/26 07:44:37;;;;;;;3.00;2.40;;;10.30;99.90;;;;;;4995884;28;20034;-61
2023/10/26 07:47:04;;;;;;;2.60;2.00;;;10.40;99.90;;;;;;4996549;28;20054;-61
2023/10/26 07:49:30;;;;;;;4.43;1.88;;;10.40;99.90;;;;;;5001290;28;20026;-62
2023/10/26 07:51:55;;;;;;;2.05;1.85;;;10.50;99.90;;;;;;4999332;28;20034;-61
2023/10/26 07:54:21;;;;;;;1.92;1.83;;;10.70;99.90;;;;;;4998668;28;20414;-61
2023/10/26 07:56:46;;;;;;;2.25;2.00;;;10.80;99.90;;;;;;4999844;28;20023;-62
2023/10/26 07:59:12;;;;;;;1.98;1.77;;;10.90;99.90;;;;;;4999778;28;20027;-62
2023/10/26 08:01:38;;;;;;;1.70;1.60;;;10.90;99.90;;;;;;4997804;28;20054;-61
2023/10/26 08:04:04;;;;;;;2.08;1.90;;;11.00;99.90;;;;;;4996221;28;20123;-62
2023/10/26 08:06:29;;;;;;;2.63;1.70;;;11.00;99.90;;;;;;4997071;28;20056;-61
2023/10/26 08:08:56;;;;;;;1.80;1.65;;;11.00;99.90;;;;;;4998352;28;20519;-61
2023/10/26 08:11:23;;;;;;;2.00;1.80;;;11.00;99.90;;;;;;4995739;28;20160;-62
2023/10/26 08:13:49;;;;;;;1.75;1.60;;;11.00;99.90;;;;;;4995870;28;20942;-62
2023/10/26 08:16:15;;;;;;;2.33;1.90;;;11.00;99.90;;;;;;4998429;28;20038;-61
2023/10/26 08:18:42;;;;;;;5.10;2.30;;;11.10;99.90;;;;;;4994905;28;20503;-62
2023/10/26 08:21:08;;;;;;;2.20;2.00;;;11.10;99.90;;;;;;4993547;28;20137;-61
2023/10/26 08:23:33;;;;;;;2.03;1.92;;;11.20;99.90;;;;;;4996158;28;20492;-62
2023/10/26 08:26:07;;;;;;;1.50;1.40;;;11.20;99.90;;;;;;4992036;28;20087;-62
2023/10/26 08:28:33;;;;;;;2.30;2.10;;;11.20;99.90;;;;;;4995867;28;20517;-61
2023/10/26 08:31:00;;;;;;;2.55;1.60;;;11.30;99.90;;;;;;4995200;28;20034;-61
2023/10/26 08:33:27;;;;;;;1.70;1.60;;;11.40;99.90;;;;;;4996732;28;20831;-63
2023/10/26 08:35:52;;;;;;;2.25;1.90;;;11.40;99.90;;;;;;4999321;28;20037;-62
2023/10/26 08:38:18;;;;;;;2.40;2.20;;;11.50;99.90;;;;;;4999043;28;20091;-61
2023/10/26 08:40:51;;;;;;;1.92;1.58;;;11.50;99.90;;;;;;4998491;28;20460;-62
2023/10/26 08:43:18;;;;;;;3.30;2.10;;;11.50;99.90;;;;;;4994286;28;20875;-61
2023/10/26 08:45:45;;;;;;;1.90;1.80;;;11.50;99.90;;;;;;4995868;28;20117;-61
2023/10/26 08:48:19;;;;;;;2.30;2.10;;;11.60;99.90;;;;;;4996436;28;20383;-61
2023/10/26 08:50:46;;;;;;;4.20;2.88;;;11.60;99.90;;;;;;4995123;28;20029;-60
2023/10/26 08:53:13;;;;;;;2.00;1.90;;;11.60;99.90;;;;;;4998754;28;20612;-60
2023/10/26 08:55:40;;;;;;;1.67;1.58;;;11.50;99.90;;;;;;4995408;28;20109;-61
2023/10/26 08:58:07;;;;;;;1.98;1.60;;;11.50;99.90;;;;;;4994894;28;20116;-61
2023/10/26 09:00:34;;;;;;;2.60;1.90;;;11.40;99.90;;;;;;4995489;28;20088;-61
2023/10/26 09:03:00;;;;;;;3.03;2.05;;;11.30;99.90;;;;;;4995384;28;20033;-61
2023/10/26 09:05:26;;;;;;;3.63;2.40;;;11.30;99.90;;;;;;4995146;28;20025;-61
2023/10/26 09:07:52;;;;;;;2.10;1.60;;;11.30;99.90;;;;;;4998430;28;20038;-62
2023/10/26 09:10:33;;;;;;;2.40;1.70;;;11.20;99.90;;;;;;5014752;28;20070;-61
2023/10/26 09:13:05;;;;;;;1.83;1.70;;;11.20;99.90;;;;;;5000587;28;20052;-62
2023/10/26 09:15:47;;;;;;;12.93;2.03;;;11.30;99.90;;;;;;4997791;28;20580;-62
2023/10/26 09:18:13;;;;;;;1.98;1.50;;;11.50;99.90;;;;;;5001304;28;20480;-61
2023/10/26 09:20:39;;;;;;;1.95;1.40;;;11.90;99.90;;;;;;4999355;28;20022;-62
2023/10/26 09:23:05;;;;;;;1.25;1.10;;;12.20;99.90;;;;;;4999582;28;20486;-62
2023/10/26 09:25:30;;;;;;;3.05;1.35;;;12.40;99.90;;;;;;4998448;28;20053;-61
2023/10/26 09:28:04;;;;;;;1.25;1.15;;;12.40;99.90;;;;;;4999672;28;20101;-61
2023/10/26 09:30:31;;;;;;;3.33;2.33;;;12.30;99.90;;;;;;5001350;28;20490;-62
2023/10/26 09:32:57;;;;;;;2.90;1.20;;;12.20;99.90;;;;;;5001989;28;20113;-61
2023/10/26 09:35:31;;;;;;;2.22;1.50;;;12.40;99.90;;;;;;5001294;28;20614;-62
2023/10/26 09:37:58;;;;;;;2.42;2.33;;;12.60;99.90;;;;;;4999619;28;20022;-61
2023/10/26 09:40:25;;;;;;;1.83;1.73;;;12.90;99.90;;;;;;4998476;28;20114;-63
2023/10/26 09:42:51;;;;;;;1.40;1.30;;;13.30;99.90;;;;;;5001015;28;20061;-64
2023/10/26 09:45:18;;;;;;;1.42;1.33;;;13.80;99.90;;;;;;5001077;28;20022;-62
2023/10/26 09:47:45;;;;;;;1.85;1.10;;;14.20;99.90;;;;;;5000585;28;20115;-62
2023/10/26 09:50:11;;;;;;;1.15;1.02;;;14.30;99.90;;;;;;5000067;28;20084;-62
2023/10/26 09:52:39;;;;;;;1.90;1.70;;;14.10;99.90;;;;;;5003566;28;20030;-61
2023/10/26 09:55:13;;;;;;;1.10;1.00;;;13.80;99.90;;;;;;4999911;28;20045;-61
2023/10/26 09:57:58;;;;;;;1.10;1.00;;;13.40;99.90;;;;;;4999939;28;20045;-62
2023/10/26 10:00:32;;;;;;;1.20;1.10;;;13.00;99.90;;;;;;4999802;28;20165;-61
2023/10/26 10:03:26;;;;;;;1.52;1.25;;;12.60;99.90;;;;;;4997292;28;20038;-61
2023/10/26 10:05:51;;;;;;;1.20;1.10;;;12.30;99.90;;;;;;4997931;28;20053;-61
2023/10/26 10:08:54;;;;;;;1.20;1.10;;;12.10;99.90;;;;;;5002355;28;20034;-61
2023/10/26 10:11:20;;;;;;;2.03;1.45;;;11.90;99.90;;;;;;5000371;28;20044;-61
2023/10/26 10:13:46;;;;;;;2.13;1.20;;;11.90;99.90;;;;;;4999830;28;20113;-61
2023/10/26 10:16:34;;;;;;;1.38;1.25;;;11.90;99.90;;;;;;4998235;28;20048;-61
2023/10/26 10:19:17;;;;;;;1.70;1.60;;;12.00;99.90;;;;;;4995992;28;20498;-61
2023/10/26 10:21:42;;;;;;;1.92;1.25;;;12.10;99.90;;;;;;4998501;28;20042;-61
2023/10/26 10:24:08;;;;;;;1.20;1.10;;;12.10;99.90;;;;;;4999973;28;20085;-59
2023/10/26 10:27:11;;;;;;;1.98;1.60;;;12.20;99.90;;;;;;5000910;28;20034;-61
2023/10/26 10:29:41;;;;;;;1.20;1.10;;;12.20;99.90;;;;;;5002327;28;20157;-61
2023/10/26 10:32:06;;;;;;;1.20;1.10;;;12.30;99.90;;;;;;5000922;28;20030;-61
2023/10/26 10:34:43;;;;;;;0.95;0.90;;;12.40;99.90;;;;;;4997686;28;20092;-62
2023/10/26 10:37:21;;;;;;;1.10;1.00;;;12.60;99.90;;;;;;5000726;28;20079;-61
2023/10/26 10:40:10;;;;;;;1.10;1.00;;;12.70;99.90;;;;;;5000575;28;20710;-61
2023/10/26 10:42:44;;;;;;;1.20;1.10;;;12.80;99.90;;;;;;4993895;28;20085;-61
2023/10/26 10:45:13;;;;;;;1.70;1.30;;;12.80;99.90;;;;;;4998038;28;20018;-60
2023/10/26 10:47:40;;;;;;;1.90;1.45;;;12.80;99.90;;;;;;5000272;28;20026;-61
2023/10/26 10:50:21;;;;;;;1.10;1.00;;;12.80;99.90;;;;;;4997787;28;20058;-61
2023/10/26 10:52:55;;;;;;;1.48;1.10;;;12.80;99.90;;;;;;5000870;28;20031;-61
2023/10/26 10:55:28;;;;;;;0.80;0.80;;;12.70;99.90;;;;;;5000159;28;20458;-62
2023/10/26 10:57:55;;;;;;;1.20;1.10;;;12.60;99.90;;;;;;4999883;28;20038;-61
2023/10/26 11:00:22;;;;;;;1.33;1.20;;;12.40;99.90;;;;;;4999739;28;20398;-61
2023/10/26 11:02:49;;;;;;;1.10;1.00;;;12.40;99.90;;;;;;5000544;28;20092;-61
2023/10/26 11:05:16;;;;;;;1.20;1.00;;;12.30;99.90;;;;;;4998972;28;20038;-61
2023/10/26 11:07:42;;;;;;;1.15;1.05;;;12.20;99.90;;;;;;4998793;28;20045;-62
2023/10/26 11:10:08;;;;;;;1.27;1.17;;;12.20;99.90;;;;;;4999055;28;20041;-61
2023/10/26 11:12:34;;;;;;;1.13;1.02;;;12.20;99.90;;;;;;4999393;28;20038;-61
2023/10/26 11:15:00;;;;;;;1.20;1.10;;;12.30;99.90;;;;;;4998990;28;20029;-61
2023/10/26 11:17:27;;;;;;;1.55;1.10;;;12.40;99.90;;;;;;4999538;28;20034;-60
2023/10/26 11:19:53;;;;;;;1.45;0.80;;;12.60;99.90;;;;;;4998758;28;20040;-60
2023/10/26 11:22:21;;;;;;;1.52;0.90;;;12.90;99.90;;;;;;4999724;28;20038;-61
2023/10/26 11:24:48;;;;;;;1.05;0.95;;;13.10;99.90;;;;;;5000189;28;20557;-61
2023/10/26 11:27:18;;;;;;;1.23;1.13;;;13.30;99.90;;;;;;5000479;28;20033;-62
2023/10/26 11:29:45;;;;;;;1.27;0.90;;;13.50;99.90;;;;;;4999941;28;20021;-61
2023/10/26 11:32:24;;;;;;;2.08;0.88;;;13.50;99.90;;;;;;4999886;28;20034;-62
2023/10/26 11:35:06;;;;;;;1.70;1.10;;;13.60;99.90;;;;;;5000387;28;20022;-62
2023/10/26 11:37:36;;;;;;;1.42;0.90;;;13.50;99.90;;;;;;4999344;28;20042;-61
2023/10/26 11:40:04;;;;;;;1.85;0.90;;;13.40;99.90;;;;;;4999475;28;20555;-61
2023/10/26 11:42:49;;;;;;;0.98;0.80;;;13.40;99.90;;;;;;5003392;28;20116;-60
2023/10/26 11:45:16;;;;;;;0.95;0.77;;;13.30;99.90;;;;;;5002047;28;20873;-61
2023/10/26 11:47:50;;;;;;;1.30;0.93;;;13.20;99.90;;;;;;5001216;28;20100;-61
2023/10/26 11:50:22;;;;;;;0.68;0.68;;;13.10;99.90;;;;;;5000821;28;20033;-60
2023/10/26 11:52:48;;;;;;;2.47;0.65;;;13.10;99.90;;;;;;4999420;28;20045;-61
2023/10/26 11:55:14;;;;;;;0.80;0.80;;;13.10;99.90;;;;;;4997502;28;20057;-60
2023/10/26 11:57:40;;;;;;;0.80;0.80;;;13.00;99.90;;;;;;4995726;28;20049;-61
2023/10/26 12:00:07;;;;;;;0.75;0.75;;;12.90;99.90;;;;;;4998140;28;20092;-60
2023/10/26 12:02:34;;;;;;;1.20;0.70;;;12.80;99.90;;;;;;4996839;28;20032;-60
2023/10/26 12:04:59;;;;;;;0.70;0.70;;;12.80;99.90;;;;;;4997653;28;20117;-61
2023/10/26 12:07:25;;;;;;;2.85;1.45;;;12.70;99.90;;;;;;4999101;28;20456;-60
2023/10/26 12:09:51;;;;;;;12.82;1.30;;;12.70;99.90;;;;;;4996284;28;20031;-61
2023/10/26 12:12:16;;;;;;;0.77;0.63;;;12.70;99.90;;;;;;4997182;28;20034;-65
2023/10/26 12:14:43;;;;;;;0.90;0.90;;;12.60;99.90;;;;;;5002638;28;20033;-60
2023/10/26 12:17:09;;;;;;;0.80;0.80;;;12.60;99.90;;;;;;4998159;28;20166;-61
2023/10/26 12:19:35;;;;;;;0.80;0.70;;;12.60;99.90;;;;;;4994462;28;20030;-61
2023/10/26 12:22:00;;;;;;;2.67;0.90;;;12.60;99.90;;;;;;4994997;28;20037;-60
2023/10/26 12:24:26;;;;;;;0.90;0.80;;;12.50;99.90;;;;;;4994520;28;20037;-61
2023/10/26 12:26:59;;;;;;;0.70;0.70;;;12.40;99.90;;;;;;4998983;28;20405;-61
2023/10/26 12:29:24;;;;;;;2.20;0.70;;;12.40;99.90;;;;;;4994987;28;20092;-61
2023/10/26 12:31:50;;;;;;;0.82;0.82;;;12.30;99.90;;;;;;4993727;28;20026;-61
2023/10/26 12:34:16;;;;;;;0.70;0.70;;;12.20;99.90;;;;;;4993860;28;20034;-61
2023/10/26 12:36:42;;;;;;;4.05;0.80;;;12.20;99.90;;;;;;4996614;28;20030;-61
2023/10/26 12:39:07;;;;;;;0.93;0.90;;;12.20;99.90;;;;;;4994920;28;20534;-61
2023/10/26 12:41:33;;;;;;;1.40;0.90;;;12.30;99.90;;;;;;4997944;28;20397;-61
2023/10/26 12:43:58;;;;;;;0.85;0.70;;;12.30;99.90;;;;;;4997574;28;20050;-62
2023/10/26 12:46:24;;;;;;;0.73;0.73;;;12.30;99.90;;;;;;4994050;28;20026;-61
2023/10/26 12:48:50;;;;;;;3.90;0.85;;;12.30;99.90;;;;;;4994040;28;20034;-61